sensor_id;sensor_type;location;lat;lon;timestamp;temperature;humidity
44215;DHT22;29884;47.450;19.124;2022-11-03T00:01:09;10.80;99.90
44215;DHT22;29884;47.450;19.124;2022-11-03T00:03:35;10.70;99.90
44215;DHT22;29884;47.450;19.124;2022-11-03T00:06:02;10.70;99.90
44215;DHT22;29884;47.450;19.124;2022-11-03T00:08:39;10.60;99.90
44215;DHT22;29884;47.450;19.124;2022-11-03T00:11:12;10.60;99.90
44215;DHT22;29884;47.450;19.124;2022-11-03T00:13:39;10.60;99.90
44215;DHT22;29884;47.450;19.124;2022-11-03T00:16:06;10.50;99.90
44215;DHT22;29884;47.450;19.124;2022-11-03T00:18:32;10.50;99.90
44215;DHT22;29884;47.450;19.124;2022-11-03T00:20:59;10.40;99.90
44215;DHT22;29884;47.450;19.124;2022-11-03T00:23:30;10.40;99.90
44215;DHT22;29884;47.450;19.124;2022-11-03T00:26:25;10.30;99.90
44215;DHT22;29884;47.450;19.124;2022-11-03T00:28:53;10.20;99.90
44215;DHT22;29884;47.450;19.124;2022-11-03T00:33:47;10.20;99.90
44215;DHT22;29884;47.450;19.124;2022-11-03T00:36:16;10.10;99.90
44215;DHT22;29884;47.450;19.124;2022-11-03T00:38:43;10.00;99.90
44215;DHT22;29884;47.450;19.124;2022-11-03T00:41:09;10.10;99.90
44215;DHT22;29884;47.450;19.124;2022-11-03T00:43:35;10.20;99.90
44215;DHT22;29884;47.450;19.124;2022-11-03T00:46:02;10.50;99.90
44215;DHT22;29884;47.450;19.124;2022-11-03T00:48:29;10.70;99.90
44215;DHT22;29884;47.450;19.124;2022-11-03T00:53:29;11.00;99.90
44215;DHT22;29884;47.450;19.124;2022-11-03T00:55:55;11.00;99.90
44215;DHT22;29884;47.450;19.124;2022-11-03T00:58:21;11.00;99.90
44215;DHT22;29884;47.450;19.124;2022-11-03T01:01:03;11.00;99.90
44215;DHT22;29884;47.450;19.124;2022-11-03T01:03:31;11.00;99.90
44215;DHT22;29884;47.450;19.124;2022-11-03T01:05:57;11.00;99.90
44215;DHT22;29884;47.450;19.124;2022-11-03T01:08:41;11.10;99.90
44215;DHT22;29884;47.450;19.124;2022-11-03T01:11:13;11.10;99.90
44215;DHT22;29884;47.450;19.124;2022-11-03T01:13:58;11.10;99.90
44215;DHT22;29884;47.450;19.124;2022-11-03T01:16:24;11.10;99.90
44215;DHT22;29884;47.450;19.124;2022-11-03T01:18:50;11.00;99.90
44215;DHT22;29884;47.450;19.124;2022-11-03T01:21:16;11.00;99.90
44215;DHT22;29884;47.450;19.124;2022-11-03T01:23:43;11.00;99.90
44215;DHT22;29884;47.450;19.124;2022-11-03T01:26:10;11.00;99.90
44215;DHT22;29884;47.450;19.124;2022-11-03T01:28:38;11.00;99.90
44215;DHT22;29884;47.450;19.124;2022-11-03T01:31:09;11.00;99.90
44215;DHT22;29884;47.450;19.124;2022-11-03T01:33:36;11.10;99.90
44215;DHT22;29884;47.450;19.124;2022-11-03T01:36:02;11.10;99.90
44215;DHT22;29884;47.450;19.124;2022-11-03T01:38:31;11.20;99.90
44215;DHT22;29884;47.450;19.124;2022-11-03T01:40:58;11.20;99.90
44215;DHT22;29884;47.450;19.124;2022-11-03T01:43:23;11.10;99.90
44215;DHT22;29884;47.450;19.124;2022-11-03T01:45:56;11.10;99.90
44215;DHT22;29884;47.450;19.124;2022-11-03T01:48:24;11.10;99.90
44215;DHT22;29884;47.450;19.124;2022-11-03T01:50:51;11.00;99.90
44215;DHT22;29884;47.450;19.124;2022-11-03T01:53:17;11.00;99.90
44215;DHT22;29884;47.450;19.124;2022-11-03T01:55:45;10.90;99.90
44215;DHT22;29884;47.450;19.124;2022-11-03T01:58:20;11.00;99.90
44215;DHT22;29884;47.450;19.124;2022-11-03T02:00:52;11.00;99.90
44215;DHT22;29884;47.450;19.124;2022-11-03T02:03:19;10.90;99.90
44215;DHT22;29884;47.450;19.124;2022-11-03T02:05:47;10.80;99.90
44215;DHT22;29884;47.450;19.124;2022-11-03T02:11:14;10.60;99.90
44215;DHT22;29884;47.450;19.124;2022-11-03T02:13:58;10.50;99.90
44215;DHT22;29884;47.450;19.124;2022-11-03T02:16:26;10.50;99.90
44215;DHT22;29884;47.450;19.124;2022-11-03T02:18:55;10.50;99.90
44215;DHT22;29884;47.450;19.124;2022-11-03T02:21:42;10.50;99.90
44215;DHT22;29884;47.450;19.124;2022-11-03T02:24:17;10.40;99.90
44215;DHT22;29884;47.450;19.124;2022-11-03T02:26:47;10.40;99.90
44215;DHT22;29884;47.450;19.124;2022-11-03T02:29:15;10.40;99.90
44215;DHT22;29884;47.450;19.124;2022-11-03T02:31:45;10.40;99.90
44215;DHT22;29884;47.450;19.124;2022-11-03T02:34:20;10.40;99.90
44215;DHT22;29884;47.450;19.124;2022-11-03T02:37:12;10.30;99.90
44215;DHT22;29884;47.450;19.124;2022-11-03T02:40:05;10.10;99.90
44215;DHT22;29884;47.450;19.124;2022-11-03T02:42:34;10.00;99.90
44215;DHT22;29884;47.450;19.124;2022-11-03T02:45:04;10.00;99.90
44215;DHT22;29884;47.450;19.124;2022-11-03T02:47:31;9.90;99.90
44215;DHT22;29884;47.450;19.124;2022-11-03T02:49:57;9.80;99.90
44215;DHT22;29884;47.450;19.124;2022-11-03T02:52:41;9.80;99.90
44215;DHT22;29884;47.450;19.124;2022-11-03T02:55:11;9.60;99.90
44215;DHT22;29884;47.450;19.124;2022-11-03T03:00:53;9.40;99.90
44215;DHT22;29884;47.450;19.124;2022-11-03T03:05:49;9.30;99.90
44215;DHT22;29884;47.450;19.124;2022-11-03T03:08:18;9.20;99.90
44215;DHT22;29884;47.450;19.124;2022-11-03T03:10:45;9.20;99.90
44215;DHT22;29884;47.450;19.124;2022-11-03T03:13:16;9.10;99.90
44215;DHT22;29884;47.450;19.124;2022-11-03T03:16:04;9.10;99.90
44215;DHT22;29884;47.450;19.124;2022-11-03T03:21:28;9.20;99.90
44215;DHT22;29884;47.450;19.124;2022-11-03T03:24:02;9.30;99.90
44215;DHT22;29884;47.450;19.124;2022-11-03T03:26:40;9.40;99.90
44215;DHT22;29884;47.450;19.124;2022-11-03T03:29:17;9.30;99.90
44215;DHT22;29884;47.450;19.124;2022-11-03T03:31:50;9.30;99.90
44215;DHT22;29884;47.450;19.124;2022-11-03T03:34:18;9.20;99.90
44215;DHT22;29884;47.450;19.124;2022-11-03T03:36:47;9.10;99.90
44215;DHT22;29884;47.450;19.124;2022-11-03T03:39:14;9.10;99.90
44215;DHT22;29884;47.450;19.124;2022-11-03T03:41:41;9.00;99.90
44215;DHT22;29884;47.450;19.124;2022-11-03T03:44:08;8.90;99.90
44215;DHT22;29884;47.450;19.124;2022-11-03T03:46:40;8.80;99.90
44215;DHT22;29884;47.450;19.124;2022-11-03T03:49:06;8.70;99.90
44215;DHT22;29884;47.450;19.124;2022-11-03T03:51:33;8.70;99.90
44215;DHT22;29884;47.450;19.124;2022-11-03T03:54:00;8.60;99.90
44215;DHT22;29884;47.450;19.124;2022-11-03T03:56:32;8.70;99.90
44215;DHT22;29884;47.450;19.124;2022-11-03T03:59:00;8.60;99.90
44215;DHT22;29884;47.450;19.124;2022-11-03T04:01:25;8.50;99.90
44215;DHT22;29884;47.450;19.124;2022-11-03T04:03:51;8.40;99.90
44215;DHT22;29884;47.450;19.124;2022-11-03T04:06:17;8.30;99.90
44215;DHT22;29884;47.450;19.124;2022-11-03T04:08:43;8.30;99.90
44215;DHT22;29884;47.450;19.124;2022-11-03T04:11:08;8.30;99.90
44215;DHT22;29884;47.450;19.124;2022-11-03T04:13:52;8.20;99.90
44215;DHT22;29884;47.450;19.124;2022-11-03T04:16:37;8.20;99.90
44215;DHT22;29884;47.450;19.124;2022-11-03T04:19:21;8.10;99.90
44215;DHT22;29884;47.450;19.124;2022-11-03T04:22:06;8.10;99.90
44215;DHT22;29884;47.450;19.124;2022-11-03T04:24:49;8.00;99.90
44215;DHT22;29884;47.450;19.124;2022-11-03T04:29:47;8.00;99.90
44215;DHT22;29884;47.450;19.124;2022-11-03T04:32:15;7.90;99.90
44215;DHT22;29884;47.450;19.124;2022-11-03T04:34:42;7.90;99.90
44215;DHT22;29884;47.450;19.124;2022-11-03T04:37:11;7.80;99.90
44215;DHT22;29884;47.450;19.124;2022-11-03T04:39:38;7.90;99.90
44215;DHT22;29884;47.450;19.124;2022-11-03T04:42:16;7.80;99.90
44215;DHT22;29884;47.450;19.124;2022-11-03T04:44:42;7.80;99.90
44215;DHT22;29884;47.450;19.124;2022-11-03T04:47:11;7.80;99.90
44215;DHT22;29884;47.450;19.124;2022-11-03T04:49:37;7.80;99.90
44215;DHT22;29884;47.450;19.124;2022-11-03T04:52:05;7.80;99.90
44215;DHT22;29884;47.450;19.124;2022-11-03T04:54:34;7.70;99.90
44215;DHT22;29884;47.450;19.124;2022-11-03T04:57:06;7.80;99.90
44215;DHT22;29884;47.450;19.124;2022-11-03T04:59:33;7.90;99.90
44215;DHT22;29884;47.450;19.124;2022-11-03T05:01:58;7.80;99.90
44215;DHT22;29884;47.450;19.124;2022-11-03T05:04:25;7.80;99.90
44215;DHT22;29884;47.450;19.124;2022-11-03T05:06:52;7.80;99.90
44215;DHT22;29884;47.450;19.124;2022-11-03T05:09:26;7.80;99.90
44215;DHT22;29884;47.450;19.124;2022-11-03T05:11:53;7.70;99.90
44215;DHT22;29884;47.450;19.124;2022-11-03T05:14:24;7.60;99.90
44215;DHT22;29884;47.450;19.124;2022-11-03T05:16:52;7.70;99.90
44215;DHT22;29884;47.450;19.124;2022-11-03T05:21:55;7.60;99.90
44215;DHT22;29884;47.450;19.124;2022-11-03T05:24:22;7.50;99.90
44215;DHT22;29884;47.450;19.124;2022-11-03T05:26:50;7.50;99.90
44215;DHT22;29884;47.450;19.124;2022-11-03T05:29:34;7.40;99.90
44215;DHT22;29884;47.450;19.124;2022-11-03T05:32:00;7.50;99.90
44215;DHT22;29884;47.450;19.124;2022-11-03T05:34:36;7.60;99.90
44215;DHT22;29884;47.450;19.124;2022-11-03T05:39:35;7.70;99.90
44215;DHT22;29884;47.450;19.124;2022-11-03T05:44:47;7.70;99.90
44215;DHT22;29884;47.450;19.124;2022-11-03T05:47:19;7.70;99.90
44215;DHT22;29884;47.450;19.124;2022-11-03T05:49:46;7.60;99.90
44215;DHT22;29884;47.450;19.124;2022-11-03T05:52:16;7.70;99.90
44215;DHT22;29884;47.450;19.124;2022-11-03T05:54:44;7.70;99.90
44215;DHT22;29884;47.450;19.124;2022-11-03T05:57:13;7.70;99.90
44215;DHT22;29884;47.450;19.124;2022-11-03T05:59:39;7.70;99.90
44215;DHT22;29884;47.450;19.124;2022-11-03T06:02:58;7.70;99.90
44215;DHT22;29884;47.450;19.124;2022-11-03T06:04:59;7.70;99.90
44215;DHT22;29884;47.450;19.124;2022-11-03T06:07:29;7.70;99.90
44215;DHT22;29884;47.450;19.124;2022-11-03T06:09:57;7.80;99.90
44215;DHT22;29884;47.450;19.124;2022-11-03T06:12:24;7.80;99.90
44215;DHT22;29884;47.450;19.124;2022-11-03T06:14:50;7.90;99.90
44215;DHT22;29884;47.450;19.124;2022-11-03T06:17:19;8.00;99.90
44215;DHT22;29884;47.450;19.124;2022-11-03T06:19:49;8.10;99.90
44215;DHT22;29884;47.450;19.124;2022-11-03T06:22:34;8.20;99.90
44215;DHT22;29884;47.450;19.124;2022-11-03T06:25:37;8.20;99.90
44215;DHT22;29884;47.450;19.124;2022-11-03T06:28:04;8.30;99.90
44215;DHT22;29884;47.450;19.124;2022-11-03T06:30:35;8.40;99.90
44215;DHT22;29884;47.450;19.124;2022-11-03T06:33:12;8.50;99.90
44215;DHT22;29884;47.450;19.124;2022-11-03T06:35:39;8.40;99.90
44215;DHT22;29884;47.450;19.124;2022-11-03T06:38:17;8.50;99.90
44215;DHT22;29884;47.450;19.124;2022-11-03T06:40:48;8.60;99.90
44215;DHT22;29884;47.450;19.124;2022-11-03T06:45:55;8.80;99.90
44215;DHT22;29884;47.450;19.124;2022-11-03T06:48:26;8.90;99.90
44215;DHT22;29884;47.450;19.124;2022-11-03T06:50:53;9.10;99.90
44215;DHT22;29884;47.450;19.124;2022-11-03T06:53:25;9.10;99.90
44215;DHT22;29884;47.450;19.124;2022-11-03T06:55:52;9.20;99.90
44215;DHT22;29884;47.450;19.124;2022-11-03T06:58:34;9.30;99.90
44215;DHT22;29884;47.450;19.124;2022-11-03T07:01:09;9.40;99.90
44215;DHT22;29884;47.450;19.124;2022-11-03T07:03:35;9.60;99.90
44215;DHT22;29884;47.450;19.124;2022-11-03T07:06:23;9.70;99.90
44215;DHT22;29884;47.450;19.124;2022-11-03T07:08:57;9.80;99.90
44215;DHT22;29884;47.450;19.124;2022-11-03T07:11:25;9.90;99.90
44215;DHT22;29884;47.450;19.124;2022-11-03T07:13:57;10.00;99.90
44215;DHT22;29884;47.450;19.124;2022-11-03T07:16:36;9.90;99.90
44215;DHT22;29884;47.450;19.124;2022-11-03T07:19:12;10.00;99.90
44215;DHT22;29884;47.450;19.124;2022-11-03T07:21:50;10.20;99.90
44215;DHT22;29884;47.450;19.124;2022-11-03T07:24:23;10.20;99.90
44215;DHT22;29884;47.450;19.124;2022-11-03T07:26:58;10.30;99.90
44215;DHT22;29884;47.450;19.124;2022-11-03T07:29:26;10.40;99.90
44215;DHT22;29884;47.450;19.124;2022-11-03T07:31:53;10.50;99.90
44215;DHT22;29884;47.450;19.124;2022-11-03T07:34:23;10.60;99.90
44215;DHT22;29884;47.450;19.124;2022-11-03T07:36:50;10.70;99.90
44215;DHT22;29884;47.450;19.124;2022-11-03T07:39:19;10.70;99.90
44215;DHT22;29884;47.450;19.124;2022-11-03T07:41:46;10.80;99.90
44215;DHT22;29884;47.450;19.124;2022-11-03T07:44:18;10.80;99.90
44215;DHT22;29884;47.450;19.124;2022-11-03T07:46:48;10.90;99.90
44215;DHT22;29884;47.450;19.124;2022-11-03T07:49:28;11.00;99.90
44215;DHT22;29884;47.450;19.124;2022-11-03T07:51:56;11.10;99.90
44215;DHT22;29884;47.450;19.124;2022-11-03T07:54:27;11.20;99.90
44215;DHT22;29884;47.450;19.124;2022-11-03T07:59:30;11.20;99.90
44215;DHT22;29884;47.450;19.124;2022-11-03T08:01:57;11.30;99.90
44215;DHT22;29884;47.450;19.124;2022-11-03T08:04:26;11.30;99.90
44215;DHT22;29884;47.450;19.124;2022-11-03T08:06:53;11.40;99.90
44215;DHT22;29884;47.450;19.124;2022-11-03T08:09:19;11.40;99.90
44215;DHT22;29884;47.450;19.124;2022-11-03T08:11:46;11.40;99.90
44215;DHT22;29884;47.450;19.124;2022-11-03T08:14:12;11.50;99.90
44215;DHT22;29884;47.450;19.124;2022-11-03T08:16:38;11.50;99.90
44215;DHT22;29884;47.450;19.124;2022-11-03T08:19:04;11.40;99.90
44215;DHT22;29884;47.450;19.124;2022-11-03T08:21:30;11.50;99.90
44215;DHT22;29884;47.450;19.124;2022-11-03T08:23:55;11.50;99.90
44215;DHT22;29884;47.450;19.124;2022-11-03T08:26:21;11.50;99.90
44215;DHT22;29884;47.450;19.124;2022-11-03T08:28:47;11.50;99.90
44215;DHT22;29884;47.450;19.124;2022-11-03T08:31:13;11.50;99.90
44215;DHT22;29884;47.450;19.124;2022-11-03T08:33:39;11.60;99.90
44215;DHT22;29884;47.450;19.124;2022-11-03T08:36:05;11.60;99.90
44215;DHT22;29884;47.450;19.124;2022-11-03T08:38:31;11.60;99.90
44215;DHT22;29884;47.450;19.124;2022-11-03T08:40:57;11.60;99.90
44215;DHT22;29884;47.450;19.124;2022-11-03T08:43:23;11.70;99.90
44215;DHT22;29884;47.450;19.124;2022-11-03T08:45:49;11.70;99.90
44215;DHT22;29884;47.450;19.124;2022-11-03T08:48:24;11.60;99.90
44215;DHT22;29884;47.450;19.124;2022-11-03T08:50:53;11.60;99.90
44215;DHT22;29884;47.450;19.124;2022-11-03T08:53:20;11.60;99.90
44215;DHT22;29884;47.450;19.124;2022-11-03T08:55:46;11.60;99.90
44215;DHT22;29884;47.450;19.124;2022-11-03T08:58:12;11.70;99.90
44215;DHT22;29884;47.450;19.124;2022-11-03T09:00:37;11.70;99.90
44215;DHT22;29884;47.450;19.124;2022-11-03T09:03:03;11.80;99.90
44215;DHT22;29884;47.450;19.124;2022-11-03T09:05:29;11.80;99.90
44215;DHT22;29884;47.450;19.124;2022-11-03T09:07:55;11.80;99.90
44215;DHT22;29884;47.450;19.124;2022-11-03T09:10:21;11.80;99.90
44215;DHT22;29884;47.450;19.124;2022-11-03T09:12:47;11.80;99.90
44215;DHT22;29884;47.450;19.124;2022-11-03T09:15:13;11.80;99.90
44215;DHT22;29884;47.450;19.124;2022-11-03T09:17:38;11.80;99.90
44215;DHT22;29884;47.450;19.124;2022-11-03T09:20:05;11.80;99.90
44215;DHT22;29884;47.450;19.124;2022-11-03T09:22:31;11.90;99.90
44215;DHT22;29884;47.450;19.124;2022-11-03T09:24:57;11.80;99.90
44215;DHT22;29884;47.450;19.124;2022-11-03T09:27:23;11.80;99.90
44215;DHT22;29884;47.450;19.124;2022-11-03T09:29:49;11.80;99.90
44215;DHT22;29884;47.450;19.124;2022-11-03T09:32:14;11.80;99.90
44215;DHT22;29884;47.450;19.124;2022-11-03T09:34:40;11.90;99.90
44215;DHT22;29884;47.450;19.124;2022-11-03T09:37:06;11.80;99.90
44215;DHT22;29884;47.450;19.124;2022-11-03T09:39:32;11.70;99.90
44215;DHT22;29884;47.450;19.124;2022-11-03T09:41:59;11.60;99.90
44215;DHT22;29884;47.450;19.124;2022-11-03T09:44:27;11.70;99.90
44215;DHT22;29884;47.450;19.124;2022-11-03T09:46:53;11.60;99.90
44215;DHT22;29884;47.450;19.124;2022-11-03T09:49:19;11.60;99.90
44215;DHT22;29884;47.450;19.124;2022-11-03T09:51:45;11.50;99.90
44215;DHT22;29884;47.450;19.124;2022-11-03T09:54:13;11.50;99.90
44215;DHT22;29884;47.450;19.124;2022-11-03T09:56:40;11.60;99.90
44215;DHT22;29884;47.450;19.124;2022-11-03T09:59:14;11.70;99.90
44215;DHT22;29884;47.450;19.124;2022-11-03T10:01:41;11.70;99.90
44215;DHT22;29884;47.450;19.124;2022-11-03T10:04:08;11.60;99.90
44215;DHT22;29884;47.450;19.124;2022-11-03T10:06:35;11.50;99.90
44215;DHT22;29884;47.450;19.124;2022-11-03T10:09:01;11.50;99.90
44215;DHT22;29884;47.450;19.124;2022-11-03T10:11:27;11.50;99.90
44215;DHT22;29884;47.450;19.124;2022-11-03T10:13:54;11.50;99.90
44215;DHT22;29884;47.450;19.124;2022-11-03T10:16:22;11.40;99.90
44215;DHT22;29884;47.450;19.124;2022-11-03T10:18:49;11.40;99.90
44215;DHT22;29884;47.450;19.124;2022-11-03T10:21:20;11.50;99.90
44215;DHT22;29884;47.450;19.124;2022-11-03T10:23:48;11.50;99.90
44215;DHT22;29884;47.450;19.124;2022-11-03T10:26:16;11.50;99.90
44215;DHT22;29884;47.450;19.124;2022-11-03T10:29:01;11.50;99.90
44215;DHT22;29884;47.450;19.124;2022-11-03T10:31:37;11.50;99.90
44215;DHT22;29884;47.450;19.124;2022-11-03T10:34:03;11.60;99.90
44215;DHT22;29884;47.450;19.124;2022-11-03T10:36:31;11.60;99.90
44215;DHT22;29884;47.450;19.124;2022-11-03T10:38:57;11.60;99.90
44215;DHT22;29884;47.450;19.124;2022-11-03T10:41:28;11.60;99.90
44215;DHT22;29884;47.450;19.124;2022-11-03T10:46:39;11.70;99.90
44215;DHT22;29884;47.450;19.124;2022-11-03T10:49:13;11.70;99.90
44215;DHT22;29884;47.450;19.124;2022-11-03T10:51:46;11.70;99.90
44215;DHT22;29884;47.450;19.124;2022-11-03T10:54:14;11.70;99.90
44215;DHT22;29884;47.450;19.124;2022-11-03T10:56:41;11.70;99.90
44215;DHT22;29884;47.450;19.124;2022-11-03T11:01:43;11.80;99.90
44215;DHT22;29884;47.450;19.124;2022-11-03T11:04:17;11.80;99.90
44215;DHT22;29884;47.450;19.124;2022-11-03T11:06:44;11.70;99.90
44215;DHT22;29884;47.450;19.124;2022-11-03T11:09:14;11.80;99.90
44215;DHT22;29884;47.450;19.124;2022-11-03T11:14:37;11.70;99.90
44215;DHT22;29884;47.450;19.124;2022-11-03T11:17:04;11.70;99.90
44215;DHT22;29884;47.450;19.124;2022-11-03T11:20:15;11.80;99.90
44215;DHT22;29884;47.450;19.124;2022-11-03T11:22:42;11.80;99.90
44215;DHT22;29884;47.450;19.124;2022-11-03T11:25:08;11.80;99.90
44215;DHT22;29884;47.450;19.124;2022-11-03T11:37:55;11.90;99.90
44215;DHT22;29884;47.450;19.124;2022-11-03T11:48:31;12.10;99.90
44215;DHT22;29884;47.450;19.124;2022-11-03T11:50:58;12.10;99.90
44215;DHT22;29884;47.450;19.124;2022-11-03T11:53:24;12.20;99.90
44215;DHT22;29884;47.450;19.124;2022-11-03T11:55:57;12.20;99.90
44215;DHT22;29884;47.450;19.124;2022-11-03T12:04:18;12.10;99.90
44215;DHT22;29884;47.450;19.124;2022-11-03T12:06:44;12.10;99.90
44215;DHT22;29884;47.450;19.124;2022-11-03T12:09:15;12.10;99.90
44215;DHT22;29884;47.450;19.124;2022-11-03T12:11:52;12.10;99.90
44215;DHT22;29884;47.450;19.124;2022-11-03T12:16:52;12.20;99.90
44215;DHT22;29884;47.450;19.124;2022-11-03T12:22:16;12.30;99.90
44215;DHT22;29884;47.450;19.124;2022-11-03T12:32:20;12.30;99.90
44215;DHT22;29884;47.450;19.124;2022-11-03T12:34:46;12.40;99.90
44215;DHT22;29884;47.450;19.124;2022-11-03T12:37:12;12.30;99.90
44215;DHT22;29884;47.450;19.124;2022-11-03T12:39:38;12.20;99.90
44215;DHT22;29884;47.450;19.124;2022-11-03T12:42:05;12.10;99.90
44215;DHT22;29884;47.450;19.124;2022-11-03T12:44:31;12.10;99.90
44215;DHT22;29884;47.450;19.124;2022-11-03T12:46:57;12.20;99.90
44215;DHT22;29884;47.450;19.124;2022-11-03T12:49:22;12.20;99.90
44215;DHT22;29884;47.450;19.124;2022-11-03T12:51:48;12.20;99.90
44215;DHT22;29884;47.450;19.124;2022-11-03T12:54:14;12.10;99.90
44215;DHT22;29884;47.450;19.124;2022-11-03T12:56:40;12.10;99.90
44215;DHT22;29884;47.450;19.124;2022-11-03T12:59:06;12.00;99.90
44215;DHT22;29884;47.450;19.124;2022-11-03T13:01:32;12.10;99.90
44215;DHT22;29884;47.450;19.124;2022-11-03T13:03:58;12.00;99.90
44215;DHT22;29884;47.450;19.124;2022-11-03T13:06:24;12.00;99.90
44215;DHT22;29884;47.450;19.124;2022-11-03T13:08:51;12.00;99.90
44215;DHT22;29884;47.450;19.124;2022-11-03T13:11:17;12.00;99.90
44215;DHT22;29884;47.450;19.124;2022-11-03T13:14:01;11.90;99.90
44215;DHT22;29884;47.450;19.124;2022-11-03T13:16:28;11.90;99.90
44215;DHT22;29884;47.450;19.124;2022-11-03T13:18:53;11.90;99.90
44215;DHT22;29884;47.450;19.124;2022-11-03T13:21:19;12.00;99.90
44215;DHT22;29884;47.450;19.124;2022-11-03T13:23:45;12.00;99.90
44215;DHT22;29884;47.450;19.124;2022-11-03T13:26:11;12.00;99.90
44215;DHT22;29884;47.450;19.124;2022-11-03T13:28:36;11.90;99.90
44215;DHT22;29884;47.450;19.124;2022-11-03T13:31:02;11.90;99.90
44215;DHT22;29884;47.450;19.124;2022-11-03T13:33:28;11.80;99.90
44215;DHT22;29884;47.450;19.124;2022-11-03T13:35:53;11.70;99.90
44215;DHT22;29884;47.450;19.124;2022-11-03T13:38:19;11.70;99.90
44215;DHT22;29884;47.450;19.124;2022-11-03T13:40:46;11.60;99.90
44215;DHT22;29884;47.450;19.124;2022-11-03T13:43:11;11.60;99.90
44215;DHT22;29884;47.450;19.124;2022-11-03T13:45:37;11.60;99.90
44215;DHT22;29884;47.450;19.124;2022-11-03T13:48:03;11.60;99.90
44215;DHT22;29884;47.450;19.124;2022-11-03T13:50:29;11.60;99.90
44215;DHT22;29884;47.450;19.124;2022-11-03T13:52:54;11.60;99.90
44215;DHT22;29884;47.450;19.124;2022-11-03T13:55:20;11.60;99.90
44215;DHT22;29884;47.450;19.124;2022-11-03T13:57:47;11.60;99.90
44215;DHT22;29884;47.450;19.124;2022-11-03T14:00:13;11.70;99.90
44215;DHT22;29884;47.450;19.124;2022-11-03T14:02:41;11.60;99.90
44215;DHT22;29884;47.450;19.124;2022-11-03T14:05:07;11.60;99.90
44215;DHT22;29884;47.450;19.124;2022-11-03T14:07:34;11.60;99.90
44215;DHT22;29884;47.450;19.124;2022-11-03T14:10:00;11.60;99.90
44215;DHT22;29884;47.450;19.124;2022-11-03T14:12:26;11.70;99.90
44215;DHT22;29884;47.450;19.124;2022-11-03T14:14:59;11.70;99.90
44215;DHT22;29884;47.450;19.124;2022-11-03T14:17:25;11.70;99.90
44215;DHT22;29884;47.450;19.124;2022-11-03T14:19:51;11.70;99.90
44215;DHT22;29884;47.450;19.124;2022-11-03T14:22:18;11.60;99.90
44215;DHT22;29884;47.450;19.124;2022-11-03T14:24:44;11.70;99.90
44215;DHT22;29884;47.450;19.124;2022-11-03T14:27:10;11.60;99.90
44215;DHT22;29884;47.450;19.124;2022-11-03T14:29:35;11.50;99.90
44215;DHT22;29884;47.450;19.124;2022-11-03T14:32:01;11.50;99.90
44215;DHT22;29884;47.450;19.124;2022-11-03T14:34:27;11.50;99.90
44215;DHT22;29884;47.450;19.124;2022-11-03T14:36:52;11.50;99.90
44215;DHT22;29884;47.450;19.124;2022-11-03T14:39:18;11.40;99.90
44215;DHT22;29884;47.450;19.124;2022-11-03T14:41:44;11.30;99.90
44215;DHT22;29884;47.450;19.124;2022-11-03T14:44:32;11.30;99.90
44215;DHT22;29884;47.450;19.124;2022-11-03T14:46:58;11.20;99.90
44215;DHT22;29884;47.450;19.124;2022-11-03T14:49:26;11.00;99.90
44215;DHT22;29884;47.450;19.124;2022-11-03T14:51:52;11.00;99.90
44215;DHT22;29884;47.450;19.124;2022-11-03T14:54:18;10.90;99.90
44215;DHT22;29884;47.450;19.124;2022-11-03T14:56:44;10.80;99.90
44215;DHT22;29884;47.450;19.124;2022-11-03T14:59:09;10.70;99.90
44215;DHT22;29884;47.450;19.124;2022-11-03T15:01:35;10.60;99.90
44215;DHT22;29884;47.450;19.124;2022-11-03T15:04:02;10.60;99.90
44215;DHT22;29884;47.450;19.124;2022-11-03T15:06:28;10.50;99.90
44215;DHT22;29884;47.450;19.124;2022-11-03T15:08:53;10.40;99.90
44215;DHT22;29884;47.450;19.124;2022-11-03T15:11:19;10.40;99.90
44215;DHT22;29884;47.450;19.124;2022-11-03T15:13:45;10.40;99.90
44215;DHT22;29884;47.450;19.124;2022-11-03T15:16:10;10.20;99.90
44215;DHT22;29884;47.450;19.124;2022-11-03T15:18:36;10.10;99.90
44215;DHT22;29884;47.450;19.124;2022-11-03T15:21:01;10.10;99.90
44215;DHT22;29884;47.450;19.124;2022-11-03T15:23:27;10.10;99.90
44215;DHT22;29884;47.450;19.124;2022-11-03T15:25:54;10.10;99.90
44215;DHT22;29884;47.450;19.124;2022-11-03T15:28:20;10.10;99.90
44215;DHT22;29884;47.450;19.124;2022-11-03T15:30:46;10.00;99.90
44215;DHT22;29884;47.450;19.124;2022-11-03T15:33:13;9.90;99.90
44215;DHT22;29884;47.450;19.124;2022-11-03T15:35:39;9.90;99.90
44215;DHT22;29884;47.450;19.124;2022-11-03T15:38:04;9.80;99.90
44215;DHT22;29884;47.450;19.124;2022-11-03T15:40:30;9.70;99.90
44215;DHT22;29884;47.450;19.124;2022-11-03T15:42:56;9.60;99.90
44215;DHT22;29884;47.450;19.124;2022-11-03T15:45:22;9.60;99.90
44215;DHT22;29884;47.450;19.124;2022-11-03T15:47:48;9.50;99.90
44215;DHT22;29884;47.450;19.124;2022-11-03T15:50:13;9.60;99.90
44215;DHT22;29884;47.450;19.124;2022-11-03T15:52:40;9.60;99.90
44215;DHT22;29884;47.450;19.124;2022-11-03T15:55:06;9.60;99.90
44215;DHT22;29884;47.450;19.124;2022-11-03T15:57:33;9.60;99.90
44215;DHT22;29884;47.450;19.124;2022-11-03T15:59:59;9.70;99.90
44215;DHT22;29884;47.450;19.124;2022-11-03T16:02:25;9.70;99.90
44215;DHT22;29884;47.450;19.124;2022-11-03T16:04:51;9.80;99.90
44215;DHT22;29884;47.450;19.124;2022-11-03T16:07:16;9.70;99.90
44215;DHT22;29884;47.450;19.124;2022-11-03T16:09:42;9.70;99.90
44215;DHT22;29884;47.450;19.124;2022-11-03T16:12:08;9.70;99.90
44215;DHT22;29884;47.450;19.124;2022-11-03T16:14:34;9.80;99.90
44215;DHT22;29884;47.450;19.124;2022-11-03T16:16:59;9.90;99.90
44215;DHT22;29884;47.450;19.124;2022-11-03T16:19:25;9.90;99.90
44215;DHT22;29884;47.450;19.124;2022-11-03T16:21:51;9.90;99.90
44215;DHT22;29884;47.450;19.124;2022-11-03T16:24:17;10.00;99.90
44215;DHT22;29884;47.450;19.124;2022-11-03T16:26:43;9.90;99.90
44215;DHT22;29884;47.450;19.124;2022-11-03T16:29:08;9.90;99.90
44215;DHT22;29884;47.450;19.124;2022-11-03T16:31:34;10.00;99.90
44215;DHT22;29884;47.450;19.124;2022-11-03T16:34:00;10.00;99.90
44215;DHT22;29884;47.450;19.124;2022-11-03T16:36:26;10.00;99.90
44215;DHT22;29884;47.450;19.124;2022-11-03T16:38:52;10.10;99.90
44215;DHT22;29884;47.450;19.124;2022-11-03T16:41:17;10.10;99.90
44215;DHT22;29884;47.450;19.124;2022-11-03T16:43:43;10.10;99.90
44215;DHT22;29884;47.450;19.124;2022-11-03T16:46:10;10.10;99.90
44215;DHT22;29884;47.450;19.124;2022-11-03T16:48:36;10.20;99.90